createdAt,value
2023-04-01T00:00:58.797Z,1.63
2023-04-01T00:03:28.132Z,1.50
2023-04-01T00:05:57.050Z,1.50
2023-04-01T00:08:24.785Z,1.50
2023-04-01T00:10:52.095Z,1.63
2023-04-01T00:13:19.796Z,1.33
2023-04-01T00:15:47.060Z,1.50
2023-04-01T00:18:14.850Z,1.48
2023-04-01T00:20:49.410Z,1.52
2023-04-01T00:23:17.138Z,1.40
2023-04-01T00:25:44.830Z,1.50
2023-04-01T00:28:12.114Z,1.65
2023-04-01T00:30:40.065Z,1.83
2023-04-01T00:33:07.451Z,1.65
2023-04-01T00:35:34.707Z,1.42
2023-04-01T00:38:02.035Z,1.65
2023-04-01T00:40:35.843Z,1.60
2023-04-01T00:43:05.489Z,1.40
2023-04-01T00:45:39.786Z,1.60
2023-04-01T00:50:37.910Z,1.80
2023-04-01T00:53:05.134Z,1.73
2023-04-01T00:55:35.842Z,1.73
2023-04-01T00:58:05.248Z,1.50
2023-04-01T01:00:32.541Z,1.70
2023-04-01T01:03:00.116Z,1.80
2023-04-01T01:05:48.916Z,1.70
2023-04-01T01:08:32.394Z,1.50
2023-04-01T01:10:59.859Z,1.60
2023-04-01T01:13:44.848Z,2.42
2023-04-01T01:16:27.171Z,1.83
2023-04-01T01:19:29.042Z,1.80
2023-04-01T01:22:32.093Z,2.00
2023-04-01T01:25:30.975Z,1.50
2023-04-01T01:28:45.725Z,1.95
2023-04-01T01:31:38.153Z,1.70
2023-04-01T01:34:26.048Z,2.05
2023-04-01T01:37:00.576Z,1.60
2023-04-01T01:39:30.634Z,1.98
2023-04-01T01:41:58.624Z,1.70
2023-04-01T01:44:26.010Z,1.58
2023-04-01T01:46:53.304Z,1.48
2023-04-01T01:49:21.076Z,1.50
2023-04-01T01:51:49.176Z,1.60
2023-04-01T01:54:18.250Z,1.73
2023-04-01T01:56:50.494Z,1.73
2023-04-01T01:59:18.894Z,1.60
2023-04-01T02:01:51.014Z,1.40
2023-04-01T02:04:19.165Z,1.67
2023-04-01T02:06:59.126Z,1.70
2023-04-01T02:09:27.739Z,1.58
2023-04-01T02:12:01.444Z,1.52
2023-04-01T02:14:40.377Z,1.42
2023-04-01T02:17:17.875Z,1.88
2023-04-01T02:19:54.283Z,1.70
2023-04-01T02:22:30.776Z,2.83
2023-04-01T02:25:07.843Z,1.73
2023-04-01T02:27:35.214Z,1.58
2023-04-01T02:30:02.826Z,1.70
2023-04-01T02:32:34.417Z,1.80
2023-04-01T02:35:08.428Z,1.85
2023-04-01T02:37:39.918Z,1.80
2023-04-01T02:40:09.079Z,1.80
2023-04-01T02:42:36.329Z,1.67
2023-04-01T02:45:04.413Z,1.80
2023-04-01T02:47:32.189Z,1.80
2023-04-01T02:49:59.837Z,1.65
2023-04-01T02:52:30.473Z,1.65
2023-04-01T02:55:00.985Z,1.50
2023-04-01T02:57:33.037Z,1.83
2023-04-01T03:00:01.116Z,2.50
2023-04-01T03:02:29.543Z,1.75
2023-04-01T03:04:56.813Z,1.90
2023-04-01T03:07:25.439Z,1.80
2023-04-01T03:09:52.880Z,1.88
2023-04-01T03:12:20.248Z,1.60
2023-04-01T03:14:51.733Z,1.73
2023-04-01T03:17:19.925Z,1.75
2023-04-01T03:19:47.111Z,1.60
2023-04-01T03:22:14.904Z,1.50
2023-04-01T03:24:42.125Z,1.67
2023-04-01T03:27:09.376Z,1.90
2023-04-01T03:29:37.073Z,1.50
2023-04-01T03:32:05.054Z,1.90
2023-04-01T03:34:32.483Z,1.60
2023-04-01T03:37:00.344Z,1.88
2023-04-01T03:39:27.637Z,1.60
2023-04-01T03:41:56.521Z,1.95
2023-04-01T03:44:24.880Z,1.83
2023-04-01T03:46:56.472Z,2.05
2023-04-01T03:49:23.636Z,1.70
2023-04-01T03:51:51.238Z,1.90
2023-04-01T03:54:19.102Z,1.90
2023-04-01T03:56:47.608Z,1.77
2023-04-01T03:59:15.429Z,1.85
2023-04-01T04:01:47.680Z,1.90
2023-04-01T04:04:15.681Z,1.92
2023-04-01T04:06:45.869Z,1.50
2023-04-01T04:09:14.739Z,2.10
2023-04-01T04:11:41.997Z,1.70
2023-04-01T04:14:09.926Z,1.75
2023-04-01T04:16:37.819Z,2.22
2023-04-01T04:19:06.807Z,2.00
2023-04-01T04:21:35.030Z,1.73
2023-04-01T04:24:03.341Z,1.60
2023-04-01T04:26:48.253Z,2.10
2023-04-01T04:29:15.566Z,1.60
2023-04-01T04:31:44.702Z,2.13
2023-04-01T04:34:16.021Z,1.90
2023-04-01T04:36:44.012Z,1.85
2023-04-01T04:39:11.470Z,2.35
2023-04-01T04:41:40.936Z,1.80
2023-04-01T04:44:08.799Z,2.17
2023-04-01T04:46:38.152Z,1.63
2023-04-01T04:49:16.538Z,1.95
2023-04-01T04:51:43.819Z,2.03
2023-04-01T04:54:11.751Z,1.73
2023-04-01T04:56:55.093Z,1.92
2023-04-01T04:59:24.285Z,2.05
2023-04-01T05:01:59.724Z,1.83
2023-04-01T05:04:27.082Z,2.10
2023-04-01T05:06:54.525Z,1.80
2023-04-01T05:09:22.839Z,1.95
2023-04-01T05:11:50.870Z,1.90
2023-04-01T05:14:18.893Z,2.10
2023-04-01T05:16:55.725Z,2.08
2023-04-01T05:19:23.875Z,1.90
2023-04-01T05:21:51.205Z,1.90
2023-04-01T05:24:18.474Z,1.77
2023-04-01T05:26:45.965Z,1.95
2023-04-01T05:29:13.636Z,1.90
2023-04-01T05:31:44.103Z,1.73
2023-04-01T05:34:12.475Z,1.70
2023-04-01T05:36:42.753Z,2.33
2023-04-01T05:39:10.470Z,1.90
2023-04-01T05:41:38.641Z,1.63
2023-04-01T05:44:08.901Z,1.75
2023-04-01T05:46:42.775Z,1.65
2023-04-01T05:49:26.890Z,2.22
2023-04-01T05:51:54.937Z,2.40
2023-04-01T05:54:23.513Z,1.60
2023-04-01T05:56:51.059Z,1.75
2023-04-01T05:59:26.956Z,2.03
2023-04-01T06:01:55.131Z,1.73
2023-04-01T06:04:22.415Z,2.00
2023-04-01T06:06:52.844Z,1.63
2023-04-01T06:09:34.940Z,1.70
2023-04-01T06:12:08.947Z,1.42
2023-04-01T06:15:14.977Z,1.67
2023-04-01T06:18:03.836Z,1.45
2023-04-01T06:20:44.575Z,1.50
2023-04-01T06:23:38.865Z,1.50
2023-04-01T06:26:28.398Z,1.70
2023-04-01T06:29:39.141Z,1.70
2023-04-01T06:32:46.197Z,1.58
2023-04-01T06:35:54.263Z,1.70
2023-04-01T06:38:27.672Z,1.60
2023-04-01T06:41:09.478Z,1.38
2023-04-01T06:43:58.173Z,1.50
2023-04-01T06:46:51.639Z,2.35
2023-04-01T06:50:08.235Z,1.80
2023-04-01T06:53:26.972Z,1.50
2023-04-01T06:59:52.069Z,2.10
2023-04-01T07:02:43.107Z,1.40
2023-04-01T07:05:12.971Z,1.70
2023-04-01T07:07:49.709Z,1.70
2023-04-01T07:10:47.400Z,1.70
2023-04-01T07:13:54.169Z,1.95
2023-04-01T07:16:37.019Z,1.73
2023-04-01T07:19:38.994Z,1.90
2023-04-01T07:22:29.180Z,1.73
2023-04-01T07:25:18.935Z,1.48
2023-04-01T07:28:13.276Z,1.58
2023-04-01T07:31:21.300Z,2.05
2023-04-01T07:34:21.178Z,1.80
2023-04-01T07:37:15.850Z,1.52
2023-04-01T07:40:14.151Z,1.40
2023-04-01T07:43:29.852Z,1.50
2023-04-01T07:46:21.911Z,1.30
2023-04-01T07:49:15.406Z,1.30
2023-04-01T07:52:06.866Z,1.50
2023-04-01T07:55:12.685Z,1.40
2023-04-01T07:57:57.099Z,1.42
2023-04-01T08:00:43.832Z,2.33
2023-04-01T08:03:33.150Z,1.60
2023-04-01T08:06:28.138Z,1.60
2023-04-01T08:09:20.030Z,1.58
2023-04-01T08:12:37.230Z,1.50
2023-04-01T08:15:30.918Z,1.60
2023-04-01T08:19:21.903Z,2.30
2023-04-01T08:21:53.495Z,1.73
2023-04-01T08:24:48.434Z,1.90
2023-04-01T08:27:50.423Z,1.75
2023-04-01T08:30:24.609Z,1.93
2023-04-01T08:32:59.896Z,1.67
2023-04-01T08:36:01.075Z,1.55
2023-04-01T08:38:48.158Z,1.60
2023-04-01T08:42:03.634Z,1.70
2023-04-01T08:45:30.912Z,1.70
2023-04-01T08:48:29.904Z,1.30
2023-04-01T08:51:36.094Z,2.53
2023-04-01T08:57:15.349Z,1.87
2023-04-01T09:00:35.521Z,1.75
2023-04-01T09:03:35.574Z,1.65
2023-04-01T09:06:25.848Z,2.70
2023-04-01T09:09:39.960Z,2.00
2023-04-01T09:12:52.450Z,1.95
2023-04-01T09:15:26.094Z,2.13
2023-04-01T09:18:28.277Z,1.90
2023-04-01T09:21:37.882Z,2.25
2023-04-01T09:24:27.180Z,2.08
2023-04-01T09:27:01.881Z,2.00
2023-04-01T09:29:48.615Z,2.00
2023-04-01T09:32:37.865Z,2.60
2023-04-01T09:35:37.555Z,2.60
2023-04-01T09:38:31.606Z,2.45
2023-04-01T09:41:03.701Z,2.20
2023-04-01T09:44:28.145Z,2.20
2023-04-01T09:47:15.476Z,2.80
2023-04-01T09:50:37.690Z,2.70
2023-04-01T09:53:32.127Z,1.80
2023-04-01T09:56:57.923Z,1.83
2023-04-01T10:00:04.479Z,2.17
2023-04-01T10:03:01.658Z,2.08
2023-04-01T10:06:06.354Z,2.30
2023-04-01T10:09:11.617Z,2.47
2023-04-01T10:12:09.859Z,2.17
2023-04-01T10:14:46.841Z,2.47
2023-04-01T10:17:39.814Z,2.00
2023-04-01T10:20:27.777Z,2.05
2023-04-01T10:23:16.720Z,1.85
2023-04-01T10:26:15.806Z,1.90
2023-04-01T10:29:12.720Z,1.40
2023-04-01T10:31:51.764Z,1.88
2023-04-01T10:35:11.840Z,2.55
2023-04-01T10:38:33.811Z,2.25
2023-04-01T10:41:29.634Z,2.80
2023-04-01T10:44:51.245Z,2.53
2023-04-01T10:47:50.833Z,2.60
2023-04-01T10:50:42.651Z,2.70
2023-04-01T10:53:40.589Z,3.13
2023-04-01T10:56:42.121Z,3.65
2023-04-01T11:00:16.381Z,2.97
2023-04-01T11:03:42.474Z,3.03
2023-04-01T11:07:05.453Z,3.05
2023-04-01T11:10:03.703Z,2.57
2023-04-01T11:13:27.852Z,2.97
2023-04-01T11:16:44.355Z,2.50
2023-04-01T11:20:14.914Z,2.95
2023-04-01T11:23:24.923Z,2.70
2023-04-01T11:26:10.146Z,2.90
2023-04-01T11:29:30.411Z,2.50
2023-04-01T11:32:49.211Z,2.67
2023-04-01T11:36:00.765Z,2.25
2023-04-01T11:38:53.946Z,2.25
2023-04-01T11:42:04.969Z,2.40
2023-04-01T11:45:08.742Z,2.33
2023-04-01T11:48:26.626Z,2.78
2023-04-01T11:51:16.220Z,2.15
2023-04-01T11:54:26.880Z,2.75
2023-04-01T11:57:23.025Z,4.35
2023-04-01T12:00:25.066Z,2.00
2023-04-01T12:03:20.805Z,2.42
2023-04-01T12:06:17.960Z,2.22
2023-04-01T12:08:48.187Z,2.22
2023-04-01T12:11:49.130Z,2.20
2023-04-01T12:14:44.414Z,2.70
2023-04-01T12:17:54.777Z,2.10
2023-04-01T12:21:00.464Z,2.25
2023-04-01T12:24:15.595Z,1.98
2023-04-01T12:26:58.103Z,1.23
2023-04-01T12:29:44.828Z,1.45
2023-04-01T12:33:12.763Z,1.80
2023-04-01T12:36:15.308Z,1.70
2023-04-01T12:39:14.776Z,1.80
2023-04-01T12:41:53.188Z,2.30
2023-04-01T12:45:08.023Z,2.22
2023-04-01T12:48:37.196Z,2.92
2023-04-01T12:51:45.230Z,2.55
2023-04-01T12:55:00.777Z,2.30
2023-04-01T12:57:59.306Z,1.73
2023-04-01T13:01:08.932Z,2.33
2023-04-01T13:04:23.515Z,2.15
2023-04-01T13:07:03.169Z,2.22
2023-04-01T13:10:07.900Z,2.15
2023-04-01T13:13:15.275Z,1.73
2023-04-01T13:16:33.580Z,1.50
2023-04-01T13:20:32.653Z,1.60
2023-04-01T13:23:16.586Z,1.83
2023-04-01T13:26:10.812Z,2.17
2023-04-01T13:29:08.842Z,1.60
2023-04-01T13:32:13.409Z,1.83
2023-04-01T13:34:56.248Z,1.60
2023-04-01T13:38:04.741Z,1.88
2023-04-01T13:41:02.928Z,1.90
2023-04-01T13:43:47.075Z,1.60
2023-04-01T13:46:38.156Z,1.70
2023-04-01T13:49:32.863Z,1.90
2023-04-01T13:52:38.624Z,1.85
2023-04-01T13:55:45.979Z,1.80
2023-04-01T13:58:47.561Z,1.90
2023-04-01T14:01:37.748Z,1.83
2023-04-01T14:04:09.450Z,1.83
2023-04-01T14:07:30.387Z,1.75
2023-04-01T14:10:41.132Z,1.65
2023-04-01T14:13:36.566Z,2.17
2023-04-01T14:16:36.830Z,2.90
2023-04-01T14:23:05.749Z,2.05
2023-04-01T14:25:57.653Z,1.58
2023-04-01T14:29:24.558Z,1.90
2023-04-01T14:32:14.494Z,1.80
2023-04-01T14:35:22.223Z,3.10
2023-04-01T14:38:13.517Z,2.13
2023-04-01T14:41:22.933Z,1.77
2023-04-01T14:44:14.375Z,1.70
2023-04-01T14:47:09.549Z,1.70
2023-04-01T14:49:47.691Z,1.80
2023-04-01T14:52:26.451Z,1.90
2023-04-01T14:54:54.621Z,2.08
2023-04-01T14:57:32.013Z,1.90
2023-04-01T15:00:10.803Z,2.00
2023-04-01T15:03:09.001Z,2.10
2023-04-01T15:05:39.999Z,1.60
2023-04-01T15:08:16.904Z,2.17
2023-04-01T15:11:28.809Z,2.10
2023-04-01T15:14:21.528Z,1.92
2023-04-01T15:17:03.053Z,1.98
2023-04-01T15:19:57.479Z,2.10
2023-04-01T15:22:40.005Z,2.30
2023-04-01T15:25:31.148Z,2.03
2023-04-01T15:28:12.153Z,1.90
2023-04-01T15:30:49.505Z,1.77
2023-04-01T15:33:33.445Z,1.70
2023-04-01T15:36:29.077Z,1.60
2023-04-01T15:39:09.155Z,1.60
2023-04-01T15:42:07.695Z,1.70
2023-04-01T15:44:47.361Z,1.95
2023-04-01T15:48:01.288Z,1.50
2023-04-01T15:50:51.817Z,2.05
2023-04-01T15:53:26.375Z,1.90
2023-04-01T15:56:27.994Z,1.70
2023-04-01T15:59:48.638Z,1.75
2023-04-01T16:02:43.319Z,1.50
2023-04-01T16:05:35.448Z,1.52
2023-04-01T16:08:22.859Z,1.63
2023-04-01T16:11:18.625Z,1.83
2023-04-01T16:14:19.364Z,1.70
2023-04-01T16:17:06.348Z,2.13
2023-04-01T16:19:50.906Z,1.88
2023-04-01T16:22:46.355Z,2.17
2023-04-01T16:25:33.133Z,1.83
2023-04-01T16:28:36.103Z,2.72
2023-04-01T16:31:28.780Z,2.20
2023-04-01T16:35:05.117Z,2.05
2023-04-01T16:37:51.856Z,2.28
2023-04-01T16:40:39.364Z,2.20
2023-04-01T16:43:52.812Z,2.30
2023-04-01T16:46:27.875Z,2.08
2023-04-01T16:49:12.849Z,2.00
2023-04-01T16:52:09.367Z,2.53
2023-04-01T16:55:18.973Z,2.40
2023-04-01T16:57:57.254Z,2.65
2023-04-01T17:00:32.414Z,2.97
2023-04-01T17:03:45.970Z,2.90
2023-04-01T17:06:45.721Z,3.03
2023-04-01T17:09:45.756Z,3.22
2023-04-01T17:12:42.687Z,3.28
2023-04-01T17:15:36.301Z,3.53
2023-04-01T17:18:26.416Z,4.60
2023-04-01T17:21:10.488Z,4.68
2023-04-01T17:24:01.808Z,4.65
2023-04-01T17:26:47.580Z,4.57
2023-04-01T17:29:56.948Z,4.68
2023-04-01T17:32:58.705Z,5.28
2023-04-01T17:36:17.361Z,4.80
2023-04-01T17:39:02.758Z,4.88
2023-04-01T17:41:42.800Z,4.90
2023-04-01T17:44:17.898Z,6.32
2023-04-01T17:47:16.652Z,5.90
2023-04-01T17:50:11.018Z,5.80
2023-04-01T17:53:07.836Z,5.22
2023-04-01T17:56:05.668Z,4.90
2023-04-01T17:58:41.073Z,5.15
2023-04-01T18:01:43.244Z,5.03
2023-04-01T18:04:38.884Z,4.72
2023-04-01T18:07:46.887Z,4.90
2023-04-01T18:11:07.205Z,5.70
2023-04-01T18:13:57.876Z,5.78
2023-04-01T18:17:04.095Z,6.30
2023-04-01T18:19:46.224Z,6.10
2023-04-01T18:22:30.109Z,6.03
2023-04-01T18:25:29.230Z,5.45
2023-04-01T18:28:30.813Z,5.32
2023-04-01T18:31:43.401Z,5.53
2023-04-01T18:35:01.613Z,6.40
2023-04-01T18:37:33.916Z,4.90
2023-04-01T18:40:43.418Z,4.32
2023-04-01T18:43:24.722Z,4.28
2023-04-01T18:45:58.154Z,4.57
2023-04-01T18:48:50.013Z,4.05
2023-04-01T18:51:54.995Z,4.57
2023-04-01T18:54:34.432Z,4.90
2023-04-01T18:57:19.300Z,5.40
2023-04-01T18:59:56.447Z,5.68
2023-04-01T19:02:37.893Z,4.85
2023-04-01T19:05:21.293Z,5.38
2023-04-01T19:07:54.393Z,5.57
2023-04-01T19:11:00.004Z,5.30
2023-04-01T19:13:42.524Z,5.00
2023-04-01T19:16:38.099Z,5.10
2023-04-01T19:19:35.584Z,4.60
2023-04-01T19:22:52.322Z,4.45
2023-04-01T19:25:48.468Z,4.47
2023-04-01T19:29:19.348Z,4.43
2023-04-01T19:32:35.273Z,4.68
2023-04-01T19:35:50.493Z,5.43
2023-04-01T19:39:12.118Z,8.40
2023-04-01T19:42:20.134Z,6.13
2023-04-01T19:45:19.617Z,6.93
2023-04-01T19:48:39.766Z,5.90
2023-04-01T19:51:41.355Z,6.05
2023-04-01T19:54:17.873Z,5.25
2023-04-01T19:57:12.414Z,5.60
2023-04-01T20:00:15.737Z,5.60
2023-04-01T20:03:28.017Z,6.10
2023-04-01T20:06:35.674Z,8.13
2023-04-01T20:09:32.897Z,8.05
2023-04-01T20:12:35.625Z,7.25
2023-04-01T20:15:37.148Z,7.10
2023-04-01T20:19:03.200Z,7.13
2023-04-01T20:21:46.951Z,10.95
2023-04-01T20:24:37.074Z,7.47
2023-04-01T20:27:29.121Z,6.15
2023-04-01T20:30:48.323Z,6.20
2023-04-01T20:33:31.138Z,6.30
2023-04-01T20:37:57.643Z,8.43
2023-04-01T20:40:08.184Z,7.07
2023-04-01T20:43:13.763Z,6.82
2023-04-01T20:46:46.166Z,6.30
2023-04-01T20:49:50.408Z,6.68
2023-04-01T20:52:51.176Z,6.43
2023-04-01T20:55:41.116Z,7.70
2023-04-01T20:58:39.368Z,7.60
2023-04-01T21:01:36.304Z,7.18
2023-04-01T21:05:05.200Z,8.20
2023-04-01T21:08:03.140Z,7.65
2023-04-01T21:10:46.649Z,7.25
2023-04-01T21:14:12.687Z,9.00
2023-04-01T21:17:21.719Z,9.45
2023-04-01T21:20:47.998Z,9.70
2023-04-01T21:24:04.428Z,10.90
2023-04-01T21:27:03.493Z,12.93
2023-04-01T21:30:15.434Z,11.20
2023-04-01T21:33:39.154Z,10.70
2023-04-01T21:36:23.153Z,10.57
2023-04-01T21:39:50.402Z,13.40
2023-04-01T21:43:16.743Z,17.02
2023-04-01T21:46:30.303Z,19.92
2023-04-01T21:49:35.885Z,21.00
2023-04-01T21:52:56.415Z,18.10
2023-04-01T21:56:11.659Z,14.73
2023-04-01T21:59:01.908Z,18.02
2023-04-01T22:02:11.389Z,26.65
2023-04-01T22:04:59.900Z,30.27
2023-04-01T22:08:03.881Z,32.35
2023-04-01T22:10:49.249Z,26.20
2023-04-01T22:13:57.959Z,25.45
2023-04-01T22:16:42.777Z,23.58
2023-04-01T22:19:23.155Z,25.85
2023-04-01T22:22:02.726Z,24.92
2023-04-01T22:25:12.892Z,24.40
2023-04-01T22:28:03.152Z,19.67
2023-04-01T22:30:53.848Z,18.65
2023-04-01T22:33:23.852Z,18.38
2023-04-01T22:36:07.148Z,18.45
2023-04-01T22:38:56.797Z,17.65
2023-04-01T22:41:44.021Z,18.98
2023-04-01T22:44:32.228Z,21.42
2023-04-01T22:47:40.392Z,21.83
2023-04-01T22:50:22.960Z,23.73
2023-04-01T22:52:57.725Z,21.80
2023-04-01T22:55:31.481Z,23.58
2023-04-01T22:58:27.186Z,27.65
2023-04-01T23:00:58.311Z,26.45
2023-04-01T23:03:34.090Z,26.15
2023-04-01T23:06:06.169Z,26.98
2023-04-01T23:08:52.782Z,26.95
2023-04-01T23:11:42.532Z,27.65
2023-04-01T23:14:37.848Z,29.48
2023-04-01T23:17:17.727Z,30.27
2023-04-01T23:19:50.747Z,30.30
2023-04-01T23:23:09.834Z,30.60
2023-04-01T23:26:01.913Z,30.98
2023-04-01T23:28:52.709Z,30.63
2023-04-01T23:31:29.744Z,30.95
2023-04-01T23:34:05.231Z,26.77
2023-04-01T23:36:32.684Z,27.05
2023-04-01T23:39:05.211Z,21.15
2023-04-01T23:41:41.813Z,21.20
2023-04-01T23:44:14.641Z,22.42
2023-04-01T23:46:45.169Z,20.90
2023-04-01T23:49:41.323Z,19.98
2023-04-01T23:52:28.325Z,18.77
2023-04-01T23:55:07.319Z,20.65
2023-04-01T23:57:36.684Z,21.33
